Observation data for Guthrie on 11/16/2019      Previous  Date       Current Mesonet Observations  Soil Data  Daily Summary Page  Observations in Plain Language
KPFS 160600Z 18004KT 05/M01 A3019 RMK A01 T00531012  RH  064%=      5-min Rain = 0
KPFS 160605Z 18003KT 05/M01 A3019 RMK A01 T00521012  RH  064%=      5-min Rain = 0
KPFS 160610Z 17004KT 05/M01 A3019 RMK A01 T00511012  RH  064%=      5-min Rain = 0
KPFS 160615Z 18004KT 05/M01 A3019 RMK A01 T00521012  RH  064%=      5-min Rain = 0
KPFS 160620Z 19004KT 05/M01 A3019 RMK A01 T00511013  RH  064%=      5-min Rain = 0
KPFS 160625Z 19004KT 05/M01 A3019 RMK A01 T00501012  RH  065%=      5-min Rain = 0
KPFS 160630Z 18005KT 05/M01 A3019 RMK A01 T00501012  RH  065%=      5-min Rain = 0
KPFS 160635Z 18005KT 05/M01 A3019 RMK A01 T00501012  RH  065%=      5-min Rain = 0
KPFS 160640Z 18005KT 05/M01 A3019 RMK A01 T00491013  RH  065%=      5-min Rain = 0
KPFS 160645Z 19004KT 05/M01 A3019 RMK A01 T00491013  RH  065%=      5-min Rain = 0
KPFS 160650Z 18004KT 05/M01 A3018 RMK A01 T00471013  RH  066%=      5-min Rain = 0
KPFS 160655Z 18004KT 05/M01 A3018 RMK A01 T00451014  RH  066%=      5-min Rain = 0
KPFS 160700Z 18004KT 04/M01 A3018 RMK A01 T00441014  RH  067%=      5-min Rain = 0
KPFS 160705Z 18004KT 04/M01 A3018 RMK A01 T00441013  RH  067%=      5-min Rain = 0
KPFS 160710Z 18004KT 04/M01 A3018 RMK A01 T00431013  RH  067%=      5-min Rain = 0
KPFS 160715Z 19004KT 04/M01 A3018 RMK A01 T00421013  RH  068%=      5-min Rain = 0
KPFS 160720Z 19003KT 04/M01 A3018 RMK A01 T00411013  RH  068%=      5-min Rain = 0
KPFS 160725Z 20003KT 04/M01 A3018 RMK A01 T00411012  RH  069%=      5-min Rain = 0
KPFS 160730Z 20003KT 04/M01 A3018 RMK A01 T00421012  RH  069%=      5-min Rain = 0
KPFS 160735Z 20003KT 04/M01 A3017 RMK A01 T00421012  RH  069%=      5-min Rain = 0
KPFS 160740Z 20003KT 04/M01 A3017 RMK A01 T00421011  RH  069%=      5-min Rain = 0
KPFS 160745Z 20003KT 04/M01 A3017 RMK A01 T00431011  RH  068%=      5-min Rain = 0
KPFS 160750Z 20004KT 04/M01 A3017 RMK A01 T00441012  RH  068%=      5-min Rain = 0
KPFS 160755Z 19005KT 04/M01 A3016 RMK A01 T00431012  RH  068%=      5-min Rain = 0
KPFS 160800Z 18005KT 04/M01 A3016 RMK A01 T00411012  RH  069%=      5-min Rain = 0
KPFS 160805Z 19006KT 04/M01 A3016 RMK A01 T00411011  RH  069%=      5-min Rain = 0
KPFS 160810Z 19005KT 04/M01 A3016 RMK A01 T00421011  RH  069%=      5-min Rain = 0
KPFS 160815Z 19005KT 05/M01 A3016 RMK A01 T00461011  RH  067%=      5-min Rain = 0
KPFS 160820Z 19005KT 04/M01 A3016 RMK A01 T00441012  RH  067%=      5-min Rain = 0
KPFS 160825Z 18006KT 04/M01 A3016 RMK A01 T00441012  RH  068%=      5-min Rain = 0
KPFS 160830Z 18006KT 04/M01 A3016 RMK A01 T00441012  RH  068%=      5-min Rain = 0
KPFS 160835Z 19005KT 05/M01 A3016 RMK A01 T00451012  RH  067%=      5-min Rain = 0
KPFS 160840Z 19005KT 04/M01 A3016 RMK A01 T00421013  RH  068%=      5-min Rain = 0
KPFS 160845Z 18005KT 04/M01 A3016 RMK A01 T00421013  RH  068%=      5-min Rain = 0
KPFS 160850Z 19005KT 04/M01 A3016 RMK A01 T00441012  RH  068%=      5-min Rain = 0
KPFS 160855Z 20004KT 05/M01 A3016 RMK A01 T00451012  RH  067%=      5-min Rain = 0
KPFS 160900Z 20004KT 05/M01 A3016 RMK A01 T00461012  RH  067%=      5-min Rain = 0
KPFS 160905Z 20005KT 05/M01 A3016 RMK A01 T00451012  RH  067%=      5-min Rain = 0
KPFS 160910Z 20005KT 05/M01 A3016 RMK A01 T00491011  RH  066%=      5-min Rain = 0
KPFS 160915Z 19005KT 05/M01 A3016 RMK A01 T00511011  RH  065%=      5-min Rain = 0
KPFS 160920Z 19006KT 05/M01 A3016 RMK A01 T00531011  RH  064%=      5-min Rain = 0
KPFS 160925Z 19006KT 05/M01 A3016 RMK A01 T00511011  RH  065%=      5-min Rain = 0
KPFS 160930Z 19006KT 05/M01 A3015 RMK A01 T00501012  RH  065%=      5-min Rain = 0
KPFS 160935Z 19006KT 05/M01 A3015 RMK A01 T00491012  RH  066%=      5-min Rain = 0
KPFS 160940Z 19006KT 05/M01 A3015 RMK A01 T00491012  RH  065%=      5-min Rain = 0
KPFS 160945Z 19007KT 05/M01 A3015 RMK A01 T00481012  RH  066%=      5-min Rain = 0
KPFS 160950Z 19007KT 05/M01 A3015 RMK A01 T00481012  RH  066%=      5-min Rain = 0
KPFS 160955Z 18007KT 05/M01 A3015 RMK A01 T00481012  RH  066%=      5-min Rain = 0
KPFS 161000Z 19007KT 05/M01 A3014 RMK A01 T00471013  RH  066%=      5-min Rain = 0
KPFS 161005Z 18007KT 05/M01 A3014 RMK A01 T00451013  RH  067%=      5-min Rain = 0
KPFS 161010Z 18007KT 04/M01 A3014 RMK A01 T00421013  RH  068%=      5-min Rain = 0
KPFS 161015Z 18007KT 04/M01 A3014 RMK A01 T00431013  RH  068%=      5-min Rain = 0
KPFS 161020Z 18006KT 04/M01 A3014 RMK A01 T00431013  RH  067%=      5-min Rain = 0
KPFS 161025Z 18005KT 04/M01 A3014 RMK A01 T00411014  RH  068%=      5-min Rain = 0
KPFS 161030Z 18006KT 04/M01 A3014 RMK A01 T00421014  RH  068%=      5-min Rain = 0
KPFS 161035Z 19006KT 04/M01 A3014 RMK A01 T00421014  RH  067%=      5-min Rain = 0
KPFS 161040Z 19006KT 04/M01 A3014 RMK A01 T00421014  RH  068%=      5-min Rain = 0
KPFS 161045Z 19006KT 04/M01 A3014 RMK A01 T00411014  RH  068%=      5-min Rain = 0
KPFS 161050Z 19006KT 04/M01 A3014 RMK A01 T00401014  RH  068%=      5-min Rain = 0
KPFS 161055Z 18006KT 04/M01 A3014 RMK A01 T00411014  RH  068%=      5-min Rain = 0
KPFS 161100Z 19006KT 04/M01 A3014 RMK A01 T00411013  RH  068%=      5-min Rain = 0
KPFS 161105Z 19006KT 04/M01 A3014 RMK A01 T00411014  RH  068%=      5-min Rain = 0
KPFS 161110Z 19007KT 04/M01 A3014 RMK A01 T00411014  RH  068%=      5-min Rain = 0
KPFS 161115Z 18007KT 04/M01 A3014 RMK A01 T00401013  RH  069%=      5-min Rain = 0
KPFS 161120Z 18007KT 04/M01 A3014 RMK A01 T00411013  RH  068%=      5-min Rain = 0
KPFS 161125Z 18006KT 04/M01 A3014 RMK A01 T00401014  RH  069%=      5-min Rain = 0
KPFS 161130Z 18006KT 04/M02 A3014 RMK A01 T00371015  RH  069%=      5-min Rain = 0
KPFS 161135Z 18006KT 04/M01 A3014 RMK A01 T00371014  RH  070%=      5-min Rain = 0
KPFS 161140Z 17006KT 04/M02 A3014 RMK A01 T00361015  RH  070%=      5-min Rain = 0
KPFS 161145Z 18006KT 03/M02 A3014 RMK A01 T00341015  RH  071%=      5-min Rain = 0
KPFS 161150Z 19005KT 03/M02 A3014 RMK A01 T00341015  RH  071%=      5-min Rain = 0
KPFS 161155Z 19005KT 03/M02 A3014 RMK A01 T00321015  RH  072%=      5-min Rain = 0
KPFS 161200Z 18004KT 03/M02 A3014 RMK A01 T00291016  RH  073%=      5-min Rain = 0
KPFS 161205Z 18004KT 03/M02 A3014 RMK A01 T00271016  RH  074%=      5-min Rain = 0
KPFS 161210Z 18005KT 03/M02 A3014 RMK A01 T00271016  RH  074%=      5-min Rain = 0
KPFS 161215Z 19005KT 03/M02 A3014 RMK A01 T00281015  RH  074%=      5-min Rain = 0
KPFS 161220Z 18005KT 03/M02 A3014 RMK A01 T00271015  RH  074%=      5-min Rain = 0
KPFS 161225Z 19005KT 03/M02 A3014 RMK A01 T00251016  RH  075%=      5-min Rain = 0
KPFS 161230Z 19005KT 03/M02 A3014 RMK A01 T00251016  RH  075%=      5-min Rain = 0
KPFS 161235Z 19005KT 02/M02 A3014 RMK A01 T00241016  RH  076%=      5-min Rain = 0
KPFS 161240Z 19006KT 02/M02 A3014 RMK A01 T00241016  RH  076%=      5-min Rain = 0
KPFS 161245Z 19006KT 02/M02 A3014 RMK A01 T00241015  RH  076%=      5-min Rain = 0
KPFS 161250Z 19006KT 03/M01 A3014 RMK A01 T00251014  RH  076%=      5-min Rain = 0
KPFS 161255Z 19006KT 03/M01 A3014 RMK A01 T00251014  RH  076%=      5-min Rain = 0
KPFS 161300Z 18006KT 02/M02 A3014 RMK A01 T00221016  RH  077%=      5-min Rain = 0
KPFS 161305Z 18007KT 02/M01 A3014 RMK A01 T00241013  RH  077%=      5-min Rain = 0
KPFS 161310Z 18006KT 03/M01 A3014 RMK A01 T00291012  RH  075%=      5-min Rain = 0
KPFS 161315Z 18006KT 03/M01 A3014 RMK A01 T00311012  RH  074%=      5-min Rain = 0
KPFS 161320Z 18007KT 03/M01 A3014 RMK A01 T00331012  RH  073%=      5-min Rain = 0
KPFS 161325Z 18007KT 03/M01 A3014 RMK A01 T00321013  RH  073%=      5-min Rain = 0
KPFS 161330Z 17007KT 03/M01 A3014 RMK A01 T00301013  RH  074%=      5-min Rain = 0
KPFS 161335Z 17007KT 03/M01 A3014 RMK A01 T00291013  RH  075%=      5-min Rain = 0
KPFS 161340Z 17007KT 03/M01 A3014 RMK A01 T00301012  RH  075%=      5-min Rain = 0
KPFS 161345Z 17007KT 03/M01 A3014 RMK A01 T00311011  RH  074%=      5-min Rain = 0
KPFS 161350Z 18006KT 03/M01 A3014 RMK A01 T00321012  RH  074%=      5-min Rain = 0
KPFS 161355Z 17007KT 03/M01 A3014 RMK A01 T00301012  RH  075%=      5-min Rain = 0
KPFS 161400Z 18007KT 03/M01 A3014 RMK A01 T00311011  RH  075%=      5-min Rain = 0
KPFS 161405Z 18007KT 03/M01 A3014 RMK A01 T00331010  RH  074%=      5-min Rain = 0
KPFS 161410Z 18007KT 04/M01 A3014 RMK A01 T00361008  RH  073%=      5-min Rain = 0
KPFS 161415Z 17006KT 04/M01 A3014 RMK A01 T00411006  RH  073%=      5-min Rain = 0
KPFS 161420Z 17005KT 05/M00 A3014 RMK A01 T00451004  RH  072%=      5-min Rain = 0
KPFS 161425Z 17005KT 05/M00 A3014 RMK A01 T00511001  RH  070%=      5-min Rain = 0
KPFS 161430Z 17005KT 06/00 A3014 RMK A01 T00580000  RH  067%=      5-min Rain = 0
KPFS 161435Z 17006KT 06/00 A3014 RMK A01 T00620000  RH  065%=      5-min Rain = 0
KPFS 161440Z 18006KT 06/00 A3014 RMK A01 T00640001  RH  065%=      5-min Rain = 0
KPFS 161445Z 19005KT 07/00 A3014 RMK A01 T00670003  RH  065%=      5-min Rain = 0
KPFS 161450Z 19004KT 07/01 A3014 RMK A01 T00720006  RH  064%=      5-min Rain = 0
KPFS 161455Z 20004KT 08/01 A3014 RMK A01 T00760007  RH  062%=      5-min Rain = 0
KPFS 161500Z 21005KT 08/01 A3014 RMK A01 T00810006  RH  060%=      5-min Rain = 0
KPFS 161505Z 20006KT 09/01 A3014 RMK A01 T00880007  RH  058%=      5-min Rain = 0
KPFS 161510Z 20007KT 09/00 A3014 RMK A01 T00910004  RH  055%=      5-min Rain = 0
KPFS 161515Z 19007KT 10/01 A3014 RMK A01 T00950005  RH  054%=      5-min Rain = 0
KPFS 161520Z 19007KT 10/00 A3014 RMK A01 T00980004  RH  053%=      5-min Rain = 0
KPFS 161525Z 20008KT 10/00 A3014 RMK A01 T01020004  RH  051%=      5-min Rain = 0
KPFS 161530Z 20008G13KT 11/01 A3014 RMK A01 T01070005  RH  050%=      5-min Rain = 0
KPFS 161535Z 20010KT 11/00 A3014 RMK A01 T01060004  RH  050%=      5-min Rain = 0
KPFS 161540Z 21010G16KT 11/00 A3014 RMK A01 T01100004  RH  049%=      5-min Rain = 0
KPFS 161545Z 22013G18KT 11/00 A3013 RMK A01 T01130002  RH  047%=      5-min Rain = 0
KPFS 161550Z 22012KT 11/00 A3013 RMK A01 T01140003  RH  047%=      5-min Rain = 0
KPFS 161555Z 22012G18KT 12/01 A3013 RMK A01 T01160005  RH  047%=      5-min Rain = 0
KPFS 161600Z 21013G20KT 12/01 A3013 RMK A01 T01170005  RH  047%=      5-min Rain = 0
KPFS 161605Z 21015G21KT 12/01 A3013 RMK A01 T01160005  RH  047%=      5-min Rain = 0
KPFS 161610Z 21017G22KT 12/01 A3012 RMK A01 T01150005  RH  047%=      5-min Rain = 0
KPFS 161615Z 21014KT 12/01 A3012 RMK A01 T01190008  RH  047%=      5-min Rain = 0
KPFS 161620Z 22013G18KT 12/01 A3012 RMK A01 T01240009  RH  046%=      5-min Rain = 0
KPFS 161625Z 21012KT 13/01 A3012 RMK A01 T01270011  RH  046%=      5-min Rain = 0
KPFS 161630Z 22011G16KT 13/01 A3012 RMK A01 T01300012  RH  045%=      5-min Rain = 0
KPFS 161635Z 22013KT 13/01 A3012 RMK A01 T01290011  RH  045%=      5-min Rain = 0
KPFS 161640Z 21011KT 13/01 A3012 RMK A01 T01300013  RH  045%=      5-min Rain = 0
KPFS 161645Z 22012KT 13/01 A3012 RMK A01 T01330014  RH  045%=      5-min Rain = 0
KPFS 161650Z 22010G15KT 14/02 A3011 RMK A01 T01370016  RH  045%=      5-min Rain = 0
KPFS 161655Z 22010KT 14/02 A3011 RMK A01 T01420018  RH  043%=      5-min Rain = 0
KPFS 161700Z 22010KT 15/02 A3011 RMK A01 T01470018  RH  042%=      5-min Rain = 0
KPFS 161705Z 21011KT 15/02 A301 RMK A01 T01450018  RH  043%=      5-min Rain = 0
KPFS 161710Z 22010KT 15/02 A301 RMK A01 T01480020  RH  042%=      5-min Rain = 0
KPFS 161715Z 21010KT 15/02 A301 RMK A01 T01520020  RH  042%=      5-min Rain = 0
KPFS 161720Z 21011G16KT 15/02 A3009 RMK A01 T01530020  RH  041%=      5-min Rain = 0
KPFS 161725Z 22009KT 16/02 A3009 RMK A01 T01590022  RH  040%=      5-min Rain = 0
KPFS 161730Z 22010G15KT 16/02 A3009 RMK A01 T01620021  RH  039%=      5-min Rain = 0
KPFS 161735Z 20012G17KT 16/02 A3009 RMK A01 T01630021  RH  039%=      5-min Rain = 0
KPFS 161740Z 19013KT 16/02 A3009 RMK A01 T01620020  RH  039%=      5-min Rain = 0
KPFS 161745Z 19011KT 16/02 A3009 RMK A01 T01640021  RH  039%=      5-min Rain = 0
KPFS 161750Z 20011KT 16/02 A3008 RMK A01 T01630020  RH  039%=      5-min Rain = 0
KPFS 161755Z 20012KT 17/02 A3008 RMK A01 T01650021  RH  038%=      5-min Rain = 0
KPFS 161800Z 20010KT 17/02 A3008 RMK A01 T01740023  RH  037%=      5-min Rain = 0
KPFS 161805Z 21010KT 17/02 A3007 RMK A01 T01740022  RH  036%=      5-min Rain = 0
KPFS 161810Z 20010KT 18/02 A3007 RMK A01 T01790023  RH  036%=      5-min Rain = 0
KPFS 161815Z 19012G18KT 18/02 A3006 RMK A01 T01810021  RH  035%=      5-min Rain = 0
KPFS 161820Z 20011KT 18/02 A3006 RMK A01 T01810021  RH  035%=      5-min Rain = 0
KPFS 161825Z 19012KT 18/02 A3006 RMK A01 T01810021  RH  035%=      5-min Rain = 0
KPFS 161830Z 19010KT 18/02 A3005 RMK A01 T01810022  RH  035%=      5-min Rain = 0
KPFS 161835Z 19010G16KT 18/02 A3005 RMK A01 T01840023  RH  035%=      5-min Rain = 0
KPFS 161840Z 19010KT 19/02 A3005 RMK A01 T01850021  RH  034%=      5-min Rain = 0
KPFS 161845Z 19010KT 18/02 A3005 RMK A01 T01830022  RH  034%=      5-min Rain = 0
KPFS 161850Z 19010G15KT 19/02 A3004 RMK A01 T01860021  RH  034%=      5-min Rain = 0
KPFS 161855Z 20010KT 19/02 A3004 RMK A01 T01870020  RH  033%=      5-min Rain = 0
KPFS 161900Z 18011G16KT 19/02 A3003 RMK A01 T01880020  RH  033%=      5-min Rain = 0
KPFS 161905Z 18009KT 19/02 A3002 RMK A01 T01860021  RH  034%=      5-min Rain = 0
KPFS 161910Z 19011KT 19/02 A3002 RMK A01 T01860021  RH  034%=      5-min Rain = 0
KPFS 161915Z 19009KT 19/02 A3001 RMK A01 T01860022  RH  034%=      5-min Rain = 0
KPFS 161920Z 19011G16KT 19/02 A3001 RMK A01 T01870020  RH  033%=      5-min Rain = 0
KPFS 161925Z 18010KT 19/02 A3001 RMK A01 T01870021  RH  033%=      5-min Rain = 0
KPFS 161930Z 17009KT 19/02 A3001 RMK A01 T01900022  RH  033%=      5-min Rain = 0
KPFS 161935Z 18011KT 19/02 A30 RMK A01 T01920021  RH  033%=      5-min Rain = 0
KPFS 161940Z 18010KT 19/02 A30 RMK A01 T01930021  RH  032%=      5-min Rain = 0
KPFS 161945Z 18010KT 19/02 A30 RMK A01 T01890020  RH  033%=      5-min Rain = 0
KPFS 161950Z 18011KT 19/02 A30 RMK A01 T01880020  RH  033%=      5-min Rain = 0
KPFS 161955Z 19011KT 19/02 A2999 RMK A01 T01880021  RH  033%=      5-min Rain = 0
KPFS 162000Z 18012KT 19/02 A2999 RMK A01 T01900020  RH  033%=      5-min Rain = 0
KPFS 162005Z 18011G16KT 19/02 A2999 RMK A01 T01890021  RH  033%=      5-min Rain = 0
KPFS 162010Z 17011KT 19/02 A2998 RMK A01 T01900021  RH  033%=      5-min Rain = 0
KPFS 162015Z 19011KT 19/02 A2998 RMK A01 T01900021  RH  033%=      5-min Rain = 0
KPFS 162020Z 17011G16KT 19/02 A2998 RMK A01 T01930022  RH  032%=      5-min Rain = 0
KPFS 162025Z 17013KT 19/02 A2998 RMK A01 T01910022  RH  033%=      5-min Rain = 0
KPFS 162030Z 17013KT 19/02 A2998 RMK A01 T01880023  RH  034%=      5-min Rain = 0
KPFS 162035Z 18014G19KT 19/02 A2998 RMK A01 T01860024  RH  034%=      5-min Rain = 0
KPFS 162040Z 17013G18KT 18/03 A2998 RMK A01 T01830025  RH  035%=      5-min Rain = 0
KPFS 162045Z 17012KT 19/03 A2998 RMK A01 T01850027  RH  035%=      5-min Rain = 0
KPFS 162050Z 18013G18KT 19/03 A2998 RMK A01 T01860027  RH  035%=      5-min Rain = 0
KPFS 162055Z 17011G16KT 19/03 A2998 RMK A01 T01880027  RH  035%=      5-min Rain = 0
KPFS 162100Z 17014G19KT 19/03 A2998 RMK A01 T01880027  RH  035%=      5-min Rain = 0
KPFS 162105Z 18013G18KT 19/03 A2998 RMK A01 T01850026  RH  035%=      5-min Rain = 0
KPFS 162110Z 19011KT 19/03 A2998 RMK A01 T01850026  RH  035%=      5-min Rain = 0
KPFS 162115Z 18011G16KT 18/03 A2998 RMK A01 T01840026  RH  036%=      5-min Rain = 0
KPFS 162120Z 19012KT 18/03 A2997 RMK A01 T01840027  RH  036%=      5-min Rain = 0
KPFS 162125Z 17011KT 18/03 A2997 RMK A01 T01840028  RH  036%=      5-min Rain = 0
KPFS 162130Z 16011KT 18/03 A2997 RMK A01 T01840028  RH  036%=      5-min Rain = 0
KPFS 162135Z 16010KT 18/03 A2997 RMK A01 T01830029  RH  037%=      5-min Rain = 0
KPFS 162140Z 16010KT 18/03 A2997 RMK A01 T01820030  RH  037%=      5-min Rain = 0
KPFS 162145Z 16010KT 19/03 A2997 RMK A01 T01850031  RH  037%=      5-min Rain = 0
KPFS 162150Z 16010KT 19/03 A2997 RMK A01 T01850031  RH  036%=      5-min Rain = 0
KPFS 162155Z 17010KT 19/03 A2997 RMK A01 T01870032  RH  036%=      5-min Rain = 0
KPFS 162200Z 16013KT 19/03 A2997 RMK A01 T01860032  RH  037%=      5-min Rain = 0
KPFS 162205Z 16013G18KT 18/03 A2997 RMK A01 T01840034  RH  037%=      5-min Rain = 0
KPFS 162210Z 16013G18KT 18/03 A2996 RMK A01 T01810034  RH  038%=      5-min Rain = 0
KPFS 162215Z 17012G17KT 18/04 A2997 RMK A01 T01810035  RH  038%=      5-min Rain = 0
KPFS 162220Z 16013KT 18/04 A2996 RMK A01 T01820035  RH  038%=      5-min Rain = 0
KPFS 162225Z 17010G15KT 18/04 A2996 RMK A01 T01820035  RH  038%=      5-min Rain = 0
KPFS 162230Z 17012KT 19/04 A2996 RMK A01 T01850036  RH  038%=      5-min Rain = 0
KPFS 162235Z 17011KT 19/04 A2996 RMK A01 T01860036  RH  038%=      5-min Rain = 0
KPFS 162240Z 16010KT 18/04 A2996 RMK A01 T01840037  RH  038%=      5-min Rain = 0
KPFS 162245Z 17011KT 18/04 A2996 RMK A01 T01820037  RH  039%=      5-min Rain = 0
KPFS 162250Z 17011KT 18/04 A2996 RMK A01 T01820038  RH  039%=      5-min Rain = 0
KPFS 162255Z 16011KT 18/04 A2996 RMK A01 T01790038  RH  040%=      5-min Rain = 0
KPFS 162300Z 16010KT 18/04 A2996 RMK A01 T01750038  RH  041%=      5-min Rain = 0
KPFS 162305Z 16011KT 17/04 A2996 RMK A01 T01730038  RH  042%=      5-min Rain = 0
KPFS 162310Z 16010KT 17/04 A2996 RMK A01 T01700039  RH  042%=      5-min Rain = 0
KPFS 162315Z 16010KT 17/04 A2996 RMK A01 T01690039  RH  043%=      5-min Rain = 0
KPFS 162320Z 16008KT 17/04 A2996 RMK A01 T01680039  RH  043%=      5-min Rain = 0
KPFS 162325Z 16007KT 16/04 A2996 RMK A01 T01630039  RH  044%=      5-min Rain = 0
KPFS 162330Z 16007KT 16/04 A2996 RMK A01 T01600039  RH  045%=      5-min Rain = 0
KPFS 162335Z 16007KT 16/04 A2997 RMK A01 T01570038  RH  046%=      5-min Rain = 0
KPFS 162340Z 16007KT 15/04 A2997 RMK A01 T01540038  RH  047%=      5-min Rain = 0
KPFS 162345Z 16006KT 15/04 A2997 RMK A01 T01510038  RH  048%=      5-min Rain = 0
KPFS 162350Z 16006KT 15/04 A2997 RMK A01 T01480038  RH  049%=      5-min Rain = 0
KPFS 162355Z 15006KT 14/04 A2996 RMK A01 T01440038  RH  050%=      5-min Rain = 0
KPFS 170000Z 13008KT 14/04 A2996 RMK A01 T01410039  RH  051%=      5-min Rain = 0
KPFS 170005Z 13008KT 14/04 A2996 RMK A01 T01390040  RH  052%=      5-min Rain = 0
KPFS 170010Z 13008KT 14/04 A2996 RMK A01 T01390040  RH  052%=      5-min Rain = 0
KPFS 170015Z 13008KT 14/04 A2997 RMK A01 T01410040  RH  052%=      5-min Rain = 0
KPFS 170020Z 13008KT 14/04 A2997 RMK A01 T01380039  RH  052%=      5-min Rain = 0
KPFS 170025Z 14008KT 13/04 A2997 RMK A01 T01340040  RH  054%=      5-min Rain = 0
KPFS 170030Z 14008KT 13/04 A2997 RMK A01 T01320040  RH  054%=      5-min Rain = 0
KPFS 170035Z 14008KT 13/04 A2997 RMK A01 T01300040  RH  055%=      5-min Rain = 0
KPFS 170040Z 14008KT 13/04 A2997 RMK A01 T01290040  RH  056%=      5-min Rain = 0
KPFS 170045Z 14008KT 13/04 A2997 RMK A01 T01270040  RH  057%=      5-min Rain = 0
KPFS 170050Z 14009KT 13/04 A2996 RMK A01 T01260040  RH  057%=      5-min Rain = 0
KPFS 170055Z 15009KT 13/04 A2996 RMK A01 T01260040  RH  057%=      5-min Rain = 0
KPFS 170100Z 15009KT 13/04 A2996 RMK A01 T01270040  RH  056%=      5-min Rain = 0
KPFS 170105Z 15009KT 13/04 A2996 RMK A01 T01280040  RH  056%=      5-min Rain = 0
KPFS 170110Z 14010KT 13/04 A2996 RMK A01 T01280038  RH  055%=      5-min Rain = 0
KPFS 170115Z 15010KT 13/04 A2996 RMK A01 T01280037  RH  055%=      5-min Rain = 0
KPFS 170120Z 15009KT 13/04 A2996 RMK A01 T01280037  RH  055%=      5-min Rain = 0
KPFS 170125Z 15009KT 13/04 A2996 RMK A01 T01270036  RH  055%=      5-min Rain = 0
KPFS 170130Z 15009KT 13/04 A2996 RMK A01 T01250036  RH  056%=      5-min Rain = 0
KPFS 170135Z 15010KT 13/04 A2996 RMK A01 T01260036  RH  055%=      5-min Rain = 0
KPFS 170140Z 15008KT 12/04 A2996 RMK A01 T01240035  RH  056%=      5-min Rain = 0
KPFS 170145Z 15009KT 12/04 A2996 RMK A01 T01200035  RH  057%=      5-min Rain = 0
KPFS 170150Z 16009KT 12/04 A2996 RMK A01 T01180035  RH  058%=      5-min Rain = 0
KPFS 170155Z 16009KT 12/04 A2996 RMK A01 T01180035  RH  058%=      5-min Rain = 0
KPFS 170200Z 16010KT 12/03 A2995 RMK A01 T01180034  RH  058%=      5-min Rain = 0
KPFS 170205Z 16010KT 12/03 A2996 RMK A01 T01160034  RH  058%=      5-min Rain = 0
KPFS 170210Z 16010KT 11/03 A2996 RMK A01 T01140034  RH  059%=      5-min Rain = 0
KPFS 170215Z 16010KT 11/03 A2996 RMK A01 T01130034  RH  059%=      5-min Rain = 0
KPFS 170220Z 16010KT 11/03 A2996 RMK A01 T01130033  RH  059%=      5-min Rain = 0
KPFS 170225Z 16010KT 11/03 A2996 RMK A01 T01120033  RH  059%=      5-min Rain = 0
KPFS 170230Z 16010KT 11/03 A2996 RMK A01 T01100032  RH  060%=      5-min Rain = 0
KPFS 170235Z 16010KT 11/03 A2996 RMK A01 T01080032  RH  060%=      5-min Rain = 0
KPFS 170240Z 17010KT 11/03 A2996 RMK A01 T01070032  RH  061%=      5-min Rain = 0
KPFS 170245Z 17010KT 11/03 A2996 RMK A01 T01060031  RH  061%=      5-min Rain = 0
KPFS 170250Z 16010KT 11/03 A2996 RMK A01 T01050031  RH  061%=      5-min Rain = 0
KPFS 170255Z 17010KT 10/03 A2995 RMK A01 T01030031  RH  062%=      5-min Rain = 0
KPFS 170300Z 17010KT 10/03 A2995 RMK A01 T01020030  RH  062%=      5-min Rain = 0
KPFS 170305Z 16011KT 10/03 A2995 RMK A01 T01010030  RH  062%=      5-min Rain = 0
KPFS 170310Z 16012KT 10/03 A2995 RMK A01 T01000030  RH  063%=      5-min Rain = 0
KPFS 170315Z 16013KT 10/03 A2995 RMK A01 T00990030  RH  063%=      5-min Rain = 0
KPFS 170320Z 16013KT 10/03 A2995 RMK A01 T01000030  RH  063%=      5-min Rain = 0
KPFS 170325Z 16012KT 10/03 A2995 RMK A01 T00990030  RH  063%=      5-min Rain = 0
KPFS 170330Z 16013KT 10/03 A2994 RMK A01 T00990031  RH  064%=      5-min Rain = 0
KPFS 170335Z 16012KT 10/03 A2994 RMK A01 T01000031  RH  064%=      5-min Rain = 0
KPFS 170340Z 17012KT 10/03 A2994 RMK A01 T01030032  RH  063%=      5-min Rain = 0
KPFS 170345Z 17012KT 11/03 A2995 RMK A01 T01060033  RH  062%=      5-min Rain = 0
KPFS 170350Z 17012KT 11/03 A2995 RMK A01 T01060033  RH  062%=      5-min Rain = 0
KPFS 170355Z 17011KT 10/03 A2994 RMK A01 T01040033  RH  062%=      5-min Rain = 0
KPFS 170400Z 17011KT 10/03 A2995 RMK A01 T01020033  RH  063%=      5-min Rain = 0
KPFS 170405Z 17011KT 10/03 A2995 RMK A01 T01000032  RH  064%=      5-min Rain = 0
KPFS 170410Z 17010KT 10/03 A2995 RMK A01 T00970032  RH  065%=      5-min Rain = 0
KPFS 170415Z 17010KT 10/03 A2995 RMK A01 T00960032  RH  066%=      5-min Rain = 0
KPFS 170420Z 17010KT 09/03 A2995 RMK A01 T00940033  RH  066%=      5-min Rain = 0
KPFS 170425Z 18010KT 09/03 A2995 RMK A01 T00930033  RH  067%=      5-min Rain = 0
KPFS 170430Z 18010KT 09/03 A2995 RMK A01 T00930033  RH  068%=      5-min Rain = 0
KPFS 170435Z 18010KT 09/03 A2995 RMK A01 T00920034  RH  068%=      5-min Rain = 0
KPFS 170440Z 18009KT 09/03 A2995 RMK A01 T00920034  RH  068%=      5-min Rain = 0
KPFS 170445Z 18007KT 09/03 A2996 RMK A01 T00900034  RH  069%=      5-min Rain = 0
KPFS 170450Z 18005KT 08/03 A2996 RMK A01 T00830030  RH  071%=      5-min Rain = 0
KPFS 170455Z 18005KT 08/03 A2996 RMK A01 T00780031  RH  073%=      5-min Rain = 0
KPFS 170500Z 18006KT 08/03 A2996 RMK A01 T00790032  RH  074%=      5-min Rain = 0
KPFS 170505Z 18008KT 08/03 A2996 RMK A01 T00810033  RH  073%=      5-min Rain = 0
KPFS 170510Z 19009KT 08/03 A2995 RMK A01 T00840034  RH  072%=      5-min Rain = 0
KPFS 170515Z 19009KT 08/03 A2995 RMK A01 T00840034  RH  072%=      5-min Rain = 0
KPFS 170520Z 18009KT 09/04 A2995 RMK A01 T00850035  RH  072%=      5-min Rain = 0
KPFS 170525Z 18009KT 09/04 A2995 RMK A01 T00860035  RH  072%=      5-min Rain = 0
KPFS 170530Z 18009KT 09/04 A2995 RMK A01 T00860035  RH  072%=      5-min Rain = 0
KPFS 170535Z 19008KT 08/03 A2996 RMK A01 T00840034  RH  072%=      5-min Rain = 0
KPFS 170540Z 19008KT 08/03 A2996 RMK A01 T00820034  RH  073%=      5-min Rain = 0
KPFS 170545Z 19008KT 08/04 A2996 RMK A01 T00840035  RH  073%=      5-min Rain = 0
KPFS 170550Z 19007KT 09/04 A2996 RMK A01 T00850036  RH  073%=      5-min Rain = 0
KPFS 170555Z 19006KT 08/04 A2997 RMK A01 T00840035  RH  073%=      5-min Rain = 0

Page generated in 0.0198 seconds.